createdAt,value
2016-10-09T00:01:05.866Z,0
2016-10-09T00:02:16.365Z,0
2016-10-09T00:03:26.891Z,0
2016-10-09T00:04:37.373Z,0
2016-10-09T00:05:47.888Z,0
2016-10-09T00:06:58.764Z,0
2016-10-09T00:08:09.398Z,0
2016-10-09T00:09:19.924Z,0
2016-10-09T00:10:30.401Z,0
2016-10-09T00:11:40.919Z,0
2016-10-09T00:12:51.412Z,0
2016-10-09T00:14:02.029Z,0
2016-10-09T00:15:12.558Z,0
2016-10-09T00:16:23.089Z,0
2016-10-09T00:17:33.596Z,0
2016-10-09T00:18:44.118Z,0
2016-10-09T00:19:55.146Z,0
2016-10-09T00:21:05.623Z,0
2016-10-09T00:22:16.123Z,0
2016-10-09T00:23:26.647Z,0
2016-10-09T00:24:37.634Z,0
2016-10-09T00:25:48.615Z,0
2016-10-09T00:26:59.608Z,0
2016-10-09T00:28:10.583Z,0
2016-10-09T00:29:21.457Z,0
2016-10-09T00:30:31.970Z,0
2016-10-09T00:31:42.985Z,0
2016-10-09T00:32:53.451Z,0
2016-10-09T00:34:03.936Z,0
2016-10-09T00:35:14.524Z,0
2016-10-09T00:36:25.019Z,0
2016-10-09T00:37:35.629Z,0
2016-10-09T00:38:46.118Z,0
2016-10-09T00:39:56.615Z,0
2016-10-09T00:41:07.125Z,0
2016-10-09T00:42:17.639Z,0
2016-10-09T00:43:28.095Z,0
2016-10-09T00:44:38.613Z,0
2016-10-09T00:45:49.115Z,0
2016-10-09T00:46:59.618Z,0
2016-10-09T00:48:10.130Z,0
2016-10-09T00:49:20.741Z,0
2016-10-09T00:50:31.206Z,0
2016-10-09T00:51:41.688Z,0
2016-10-09T00:52:52.568Z,0
2016-10-09T00:54:03.074Z,0
2016-10-09T00:55:13.772Z,0
2016-10-09T00:56:24.327Z,0
2016-10-09T00:57:34.852Z,0
2016-10-09T00:58:45.347Z,0
2016-10-09T00:59:55.856Z,0
2016-10-09T01:01:06.489Z,0
2016-10-09T01:02:17.366Z,0
2016-10-09T01:03:27.860Z,0
2016-10-09T01:04:38.351Z,0
2016-10-09T01:05:48.835Z,0
2016-10-09T01:06:59.912Z,0
2016-10-09T01:08:10.367Z,0
2016-10-09T01:09:21.345Z,0
2016-10-09T01:10:31.865Z,0
2016-10-09T01:11:42.386Z,0
2016-10-09T01:12:52.906Z,0
2016-10-09T01:14:03.419Z,0
2016-10-09T01:15:13.916Z,0
2016-10-09T01:16:24.374Z,0
2016-10-09T01:17:34.913Z,0
2016-10-09T01:18:45.496Z,0
2016-10-09T01:19:55.958Z,0
2016-10-09T01:21:06.420Z,0
2016-10-09T01:22:16.885Z,0
2016-10-09T01:23:27.338Z,0
2016-10-09T01:24:37.894Z,0
2016-10-09T01:25:48.358Z,0
2016-10-09T01:26:58.825Z,0
2016-10-09T01:28:09.278Z,0
2016-10-09T01:29:20.121Z,0
2016-10-09T01:30:30.691Z,0
2016-10-09T01:31:41.161Z,0
2016-10-09T01:32:51.625Z,0
2016-10-09T01:34:02.077Z,0
2016-10-09T01:35:12.532Z,0
2016-10-09T01:36:22.992Z,0
2016-10-09T01:37:33.457Z,0
2016-10-09T01:38:43.929Z,0
2016-10-09T01:39:54.399Z,0
2016-10-09T01:41:04.848Z,0
2016-10-09T01:42:15.401Z,0
2016-10-09T01:43:26.240Z,0
2016-10-09T01:44:36.708Z,0
2016-10-09T01:45:47.552Z,0
2016-10-09T01:46:58.011Z,0
2016-10-09T01:48:08.577Z,0
2016-10-09T01:49:20.735Z,0
2016-10-09T01:50:31.190Z,0
2016-10-09T01:51:41.641Z,0
2016-10-09T01:53:04.999Z,0
2016-10-09T01:54:15.513Z,0
2016-10-09T01:55:26.042Z,0
2016-10-09T01:56:36.524Z,0
2016-10-09T01:57:46.994Z,0
2016-10-09T01:58:57.526Z,0
2016-10-09T02:00:08.020Z,0
2016-10-09T02:01:18.530Z,0
2016-10-09T02:02:29.059Z,0
2016-10-09T02:03:39.566Z,0
2016-10-09T02:04:50.191Z,0
2016-10-09T02:06:00.663Z,0
2016-10-09T02:07:11.160Z,0
2016-10-09T02:08:21.670Z,0
2016-10-09T02:09:32.158Z,0
2016-10-09T02:10:42.762Z,0
2016-10-09T02:11:53.218Z,0
2016-10-09T02:13:03.727Z,0
2016-10-09T02:14:14.282Z,0
2016-10-09T02:15:25.639Z,0
2016-10-09T02:16:36.267Z,0
2016-10-09T02:17:46.765Z,0
2016-10-09T02:18:57.239Z,0
2016-10-09T02:20:07.705Z,0
2016-10-09T02:21:18.693Z,0
2016-10-09T02:22:29.169Z,0
2016-10-09T02:23:39.654Z,0
2016-10-09T02:24:50.164Z,0
2016-10-09T02:26:00.701Z,0
2016-10-09T02:27:11.190Z,0
2016-10-09T02:28:22.141Z,0
2016-10-09T02:29:32.648Z,0
2016-10-09T02:30:43.154Z,0
2016-10-09T02:31:53.667Z,0
2016-10-09T02:33:16.997Z,0
2016-10-09T02:34:27.985Z,0
2016-10-09T02:35:38.462Z,0
2016-10-09T02:36:48.977Z,0
2016-10-09T02:37:59.509Z,0
2016-10-09T02:39:10.602Z,0
2016-10-09T02:40:21.470Z,0
2016-10-09T02:41:32.328Z,0
2016-10-09T02:42:42.808Z,0
2016-10-09T02:43:53.305Z,0
2016-10-09T02:45:03.803Z,0
2016-10-09T02:46:14.661Z,0
2016-10-09T02:47:25.184Z,0
2016-10-09T02:48:35.666Z,0
2016-10-09T02:49:46.159Z,0
2016-10-09T02:50:56.762Z,0
2016-10-09T02:52:07.250Z,0
2016-10-09T02:53:17.757Z,0
2016-10-09T02:54:28.251Z,0
2016-10-09T02:55:38.757Z,0
2016-10-09T02:56:49.656Z,0
2016-10-09T02:58:00.583Z,0
2016-10-09T02:59:11.104Z,0
2016-10-09T03:00:21.595Z,0
2016-10-09T03:01:32.591Z,0
2016-10-09T03:02:43.226Z,0
2016-10-09T03:03:53.705Z,0
2016-10-09T03:05:04.166Z,0
2016-10-09T03:06:14.716Z,0
2016-10-09T03:07:25.184Z,0
2016-10-09T03:08:35.873Z,0
2016-10-09T03:09:46.357Z,0
2016-10-09T03:10:56.839Z,0
2016-10-09T03:12:07.318Z,0
2016-10-09T03:13:17.850Z,0
2016-10-09T03:14:28.364Z,0
2016-10-09T03:15:39.426Z,0
2016-10-09T03:16:49.898Z,0
2016-10-09T03:18:00.414Z,0
2016-10-09T03:19:11.410Z,0
2016-10-09T03:20:22.006Z,0
2016-10-09T03:21:32.528Z,0
2016-10-09T03:22:43.019Z,0
2016-10-09T03:23:53.507Z,0
2016-10-09T03:25:04.400Z,0
2016-10-09T03:26:14.964Z,0
2016-10-09T03:27:25.860Z,0
2016-10-09T03:28:36.342Z,0
2016-10-09T03:29:46.812Z,0
2016-10-09T03:30:57.777Z,0
2016-10-09T03:32:08.367Z,0
2016-10-09T03:33:18.878Z,0
2016-10-09T03:34:29.412Z,0
2016-10-09T03:35:39.909Z,0
2016-10-09T03:36:50.428Z,0
2016-10-09T03:38:00.932Z,0
2016-10-09T03:39:11.872Z,0
2016-10-09T03:40:22.355Z,0
2016-10-09T03:41:32.863Z,0
2016-10-09T03:42:43.367Z,0
2016-10-09T03:43:54.473Z,0
2016-10-09T03:45:05.428Z,0
2016-10-09T03:46:15.945Z,0
2016-10-09T03:47:26.439Z,0
2016-10-09T03:48:36.973Z,0
2016-10-09T03:49:47.615Z,0
2016-10-09T03:50:58.109Z,0
2016-10-09T03:52:08.609Z,0
2016-10-09T03:53:19.648Z,0
2016-10-09T03:54:30.108Z,0
2016-10-09T03:55:40.678Z,0
2016-10-09T03:56:51.187Z,0
2016-10-09T03:58:02.150Z,0
2016-10-09T03:59:12.689Z,0
2016-10-09T04:00:23.241Z,0
2016-10-09T04:01:33.731Z,0
2016-10-09T04:02:44.203Z,0
2016-10-09T04:03:54.726Z,0
2016-10-09T04:05:05.204Z,0
2016-10-09T04:06:15.657Z,0
2016-10-09T04:07:26.757Z,0
2016-10-09T04:08:37.238Z,0
2016-10-09T04:09:47.724Z,0
2016-10-09T04:10:58.231Z,0
2016-10-09T04:12:09.230Z,0
2016-10-09T04:13:19.847Z,0
2016-10-09T04:14:30.346Z,0
2016-10-09T04:15:41.248Z,0
2016-10-09T04:16:51.756Z,0
2016-10-09T04:18:02.746Z,0
2016-10-09T04:19:13.362Z,0
2016-10-09T04:20:23.850Z,0
2016-10-09T04:21:34.316Z,0
2016-10-09T04:22:45.298Z,0
2016-10-09T04:23:55.806Z,0
2016-10-09T04:25:06.323Z,0
2016-10-09T04:26:16.838Z,0
2016-10-09T04:27:27.374Z,0
2016-10-09T04:28:37.906Z,0
2016-10-09T04:29:49.393Z,0
2016-10-09T04:30:59.982Z,0
2016-10-09T04:32:10.519Z,0
2016-10-09T04:33:21.549Z,0
2016-10-09T04:34:32.055Z,0
2016-10-09T04:35:42.524Z,0
2016-10-09T04:36:53.108Z,0
2016-10-09T04:38:03.638Z,0
2016-10-09T04:39:14.589Z,0
2016-10-09T04:40:25.099Z,0
2016-10-09T04:41:35.668Z,0
2016-10-09T04:42:46.252Z,0
2016-10-09T04:43:56.801Z,0
2016-10-09T04:45:07.342Z,0
2016-10-09T04:46:17.887Z,0
2016-10-09T04:47:28.418Z,0
2016-10-09T04:48:38.946Z,0
2016-10-09T04:49:49.477Z,0
2016-10-09T04:50:59.964Z,0
2016-10-09T04:52:10.529Z,0
2016-10-09T04:53:21.046Z,0
2016-10-09T04:54:31.590Z,0
2016-10-09T04:55:42.188Z,0
2016-10-09T04:56:52.731Z,0
2016-10-09T04:58:03.261Z,0
2016-10-09T04:59:13.814Z,0
2016-10-09T05:00:24.486Z,0
2016-10-09T05:01:34.998Z,0
2016-10-09T05:02:58.346Z,0
2016-10-09T05:04:08.928Z,0
2016-10-09T05:05:21.101Z,0
2016-10-09T05:06:31.681Z,0
2016-10-09T05:07:42.233Z,0
2016-10-09T05:08:52.786Z,0
2016-10-09T05:10:03.335Z,0
2016-10-09T05:11:13.882Z,0
2016-10-09T05:12:24.372Z,0
2016-10-09T05:13:34.917Z,0
2016-10-09T05:14:45.411Z,0
2016-10-09T05:15:55.945Z,0
2016-10-09T05:17:06.640Z,0
2016-10-09T05:18:17.225Z,0
2016-10-09T05:19:27.790Z,0
2016-10-09T05:20:38.313Z,0
2016-10-09T05:21:48.822Z,0
2016-10-09T05:22:59.492Z,0
2016-10-09T05:24:10.038Z,0
2016-10-09T05:25:20.562Z,0
2016-10-09T05:26:31.059Z,0
2016-10-09T05:27:41.613Z,0
2016-10-09T05:28:52.286Z,0
2016-10-09T05:30:02.792Z,0
2016-10-09T05:31:13.338Z,0
2016-10-09T05:32:23.917Z,0
2016-10-09T05:33:34.469Z,0
2016-10-09T05:34:45.408Z,0
2016-10-09T05:35:55.962Z,0
2016-10-09T05:37:06.448Z,0
2016-10-09T05:38:16.945Z,0
2016-10-09T05:39:27.882Z,0
2016-10-09T05:40:38.525Z,0
2016-10-09T05:41:49.019Z,0
2016-10-09T05:42:59.564Z,0
2016-10-09T05:44:10.117Z,0
2016-10-09T05:45:20.680Z,0
2016-10-09T05:46:31.242Z,0
2016-10-09T05:47:41.784Z,0
2016-10-09T05:48:52.322Z,0
2016-10-09T05:50:02.871Z,0
2016-10-09T05:51:13.756Z,0
2016-10-09T05:52:25.227Z,0
2016-10-09T05:53:35.750Z,0
2016-10-09T05:54:46.299Z,0
2016-10-09T05:55:56.874Z,0
2016-10-09T05:57:07.398Z,0
2016-10-09T05:58:18.104Z,0
2016-10-09T05:59:28.642Z,0
2016-10-09T06:00:39.140Z,0
2016-10-09T06:01:49.659Z,0
2016-10-09T06:03:00.257Z,0
2016-10-09T06:04:11.842Z,0
2016-10-09T06:05:22.383Z,0
2016-10-09T06:06:32.887Z,0
2016-10-09T06:07:43.426Z,0
2016-10-09T06:08:53.988Z,0
2016-10-09T06:10:04.530Z,0
2016-10-09T06:11:15.058Z,0
2016-10-09T06:12:25.606Z,0
2016-10-09T06:13:36.138Z,0
2016-10-09T06:14:46.680Z,0
2016-10-09T06:15:57.292Z,0
2016-10-09T06:17:07.839Z,0
2016-10-09T06:18:18.391Z,0
2016-10-09T06:19:28.960Z,0
2016-10-09T06:20:39.496Z,0
2016-10-09T06:21:50.097Z,0
2016-10-09T06:23:01.014Z,0
2016-10-09T06:24:11.538Z,0
2016-10-09T06:25:22.519Z,0
2016-10-09T06:26:32.983Z,0
2016-10-09T06:27:43.584Z,0
2016-10-09T06:28:54.063Z,0
2016-10-09T06:30:04.542Z,0
2016-10-09T06:31:15.029Z,0
2016-10-09T06:32:25.489Z,0
2016-10-09T06:33:36.066Z,0
2016-10-09T06:34:46.577Z,0
2016-10-09T06:35:57.120Z,0
2016-10-09T06:37:08.068Z,0
2016-10-09T06:38:18.564Z,0
2016-10-09T06:39:29.105Z,0
2016-10-09T06:40:39.616Z,0
2016-10-09T06:41:50.102Z,0
2016-10-09T06:43:00.574Z,0
2016-10-09T06:44:11.101Z,0
2016-10-09T06:45:21.749Z,0
2016-10-09T06:46:32.231Z,0
2016-10-09T06:47:42.757Z,0
2016-10-09T06:48:53.247Z,0
2016-10-09T06:50:03.735Z,0
2016-10-09T06:51:14.314Z,0
2016-10-09T06:52:24.862Z,0
2016-10-09T06:53:35.356Z,0
2016-10-09T06:54:45.820Z,0
2016-10-09T06:55:56.268Z,0
2016-10-09T06:57:06.812Z,0
2016-10-09T06:58:17.262Z,0
2016-10-09T06:59:27.706Z,0
2016-10-09T07:00:38.169Z,0
2016-10-09T07:01:49.013Z,0
2016-10-09T07:02:59.464Z,0
2016-10-09T07:04:09.916Z,0
2016-10-09T07:05:20.373Z,0
2016-10-09T07:06:30.834Z,0
2016-10-09T07:07:41.676Z,0
2016-10-09T07:08:52.230Z,0
2016-10-09T07:10:02.686Z,0
2016-10-09T07:11:13.135Z,0
2016-10-09T07:12:23.590Z,0
2016-10-09T07:13:34.048Z,0
2016-10-09T07:14:44.603Z,0
2016-10-09T07:15:55.056Z,0
2016-10-09T07:17:05.509Z,0
2016-10-09T07:18:15.973Z,0
2016-10-09T07:19:26.445Z,0
2016-10-09T07:20:37.029Z,0
2016-10-09T07:21:47.486Z,0
2016-10-09T07:22:57.941Z,0
2016-10-09T07:24:08.386Z,0
2016-10-09T07:25:18.851Z,0
2016-10-09T07:26:29.299Z,0
2016-10-09T07:27:39.763Z,0
2016-10-09T07:28:50.285Z,0
2016-10-09T07:30:00.791Z,0
2016-10-09T07:31:11.261Z,0
2016-10-09T07:32:21.899Z,0
2016-10-09T07:33:32.403Z,0
2016-10-09T07:34:42.920Z,0
2016-10-09T07:35:53.456Z,0
2016-10-09T07:37:03.909Z,0
2016-10-09T07:38:14.492Z,0
2016-10-09T07:39:24.980Z,0
2016-10-09T07:40:35.436Z,0
2016-10-09T07:41:45.905Z,0
2016-10-09T07:42:56.790Z,0
2016-10-09T07:44:07.384Z,0
2016-10-09T07:45:17.875Z,0
2016-10-09T07:46:28.342Z,0
2016-10-09T07:47:38.860Z,0
2016-10-09T07:48:49.364Z,0
2016-10-09T07:50:00.425Z,0
2016-10-09T07:51:10.885Z,0
2016-10-09T07:52:21.381Z,0
2016-10-09T07:53:31.889Z,0
2016-10-09T07:54:42.421Z,0
2016-10-09T07:55:52.970Z,0
2016-10-09T07:57:03.482Z,0
2016-10-09T07:58:13.934Z,0
2016-10-09T07:59:24.435Z,0
2016-10-09T08:00:34.885Z,0
2016-10-09T08:01:45.347Z,0
2016-10-09T08:02:55.802Z,0
2016-10-09T08:04:06.249Z,0
2016-10-09T08:05:16.701Z,0
2016-10-09T08:06:27.172Z,0
2016-10-09T08:07:37.722Z,0
2016-10-09T08:08:48.176Z,0
2016-10-09T08:09:58.643Z,0
2016-10-09T08:11:09.101Z,0
2016-10-09T08:12:20.047Z,0
2016-10-09T08:13:30.986Z,4
2016-10-09T08:14:41.440Z,4
2016-10-09T08:15:51.905Z,4
2016-10-09T08:17:02.361Z,4
2016-10-09T08:18:12.820Z,4
2016-10-09T08:19:23.281Z,8
2016-10-09T08:20:33.724Z,12
2016-10-09T08:21:44.561Z,16
2016-10-09T08:22:55.499Z,24
2016-10-09T08:24:06.363Z,28
2016-10-09T08:25:16.918Z,40
2016-10-09T08:26:27.376Z,56
2016-10-09T08:27:37.824Z,68
2016-10-09T08:28:48.273Z,88
2016-10-09T08:29:58.735Z,112
2016-10-09T08:31:09.298Z,140
2016-10-09T08:32:19.752Z,172
2016-10-09T08:33:30.212Z,212
2016-10-09T08:34:40.660Z,252
2016-10-09T08:35:51.109Z,300
2016-10-09T08:37:02.110Z,356
2016-10-09T08:38:12.603Z,412
2016-10-09T08:39:23.058Z,476
2016-10-09T08:40:33.555Z,552
2016-10-09T08:41:44.044Z,632
2016-10-09T08:42:54.534Z,716
2016-10-09T08:44:04.994Z,808
2016-10-09T08:45:15.469Z,908
2016-10-09T08:46:26.358Z,1008
2016-10-09T08:47:36.887Z,1116
2016-10-09T08:48:47.485Z,1232
2016-10-09T08:49:57.975Z,1348
2016-10-09T08:51:08.771Z,1472
2016-10-09T08:52:19.251Z,1596
2016-10-09T08:53:29.733Z,1720
2016-10-09T08:54:40.851Z,1848
2016-10-09T08:55:51.362Z,1976
2016-10-09T08:57:01.862Z,2108
2016-10-09T08:58:12.340Z,2240
2016-10-09T08:59:22.848Z,2376
2016-10-09T09:00:33.474Z,2508
2016-10-09T09:01:43.931Z,2636
2016-10-09T09:02:54.477Z,2768
2016-10-09T09:04:05.019Z,2916
2016-10-09T09:05:15.529Z,3068
2016-10-09T09:06:26.054Z,3200
2016-10-09T09:07:36.546Z,3312
2016-10-09T09:08:47.067Z,3460
2016-10-09T09:09:57.573Z,3624
2016-10-09T09:11:08.070Z,3752
2016-10-09T09:12:19.095Z,3904
2016-10-09T09:13:29.623Z,4164
2016-10-09T09:14:40.609Z,4304
2016-10-09T09:15:51.105Z,4448
2016-10-09T09:17:01.609Z,4804
2016-10-09T09:18:13.120Z,5216
2016-10-09T09:19:23.640Z,5528
2016-10-09T09:20:34.540Z,5864
2016-10-09T09:21:45.050Z,5952
2016-10-09T09:22:55.516Z,6104
2016-10-09T09:24:06.134Z,6832
2016-10-09T09:25:16.620Z,7464
2016-10-09T09:26:27.107Z,8336
2016-10-09T09:27:37.626Z,8444
2016-10-09T09:28:48.552Z,8104
2016-10-09T09:29:59.011Z,8524
2016-10-09T09:31:09.531Z,9392
2016-10-09T09:32:20.029Z,11140
2016-10-09T09:33:30.550Z,11744
2016-10-09T09:34:41.025Z,12724
2016-10-09T09:35:51.730Z,14140
2016-10-09T09:37:02.191Z,14508
2016-10-09T09:38:12.719Z,13868
2016-10-09T09:39:23.232Z,10736
2016-10-09T09:40:33.796Z,10468
2016-10-09T09:41:44.396Z,9712
2016-10-09T09:42:54.844Z,10076
2016-10-09T09:44:05.338Z,10104
2016-10-09T09:45:15.879Z,10512
2016-10-09T09:46:26.405Z,13432
2016-10-09T09:47:36.883Z,15320
2016-10-09T09:48:47.434Z,17824
2016-10-09T09:49:57.993Z,23584
2016-10-09T09:51:08.956Z,29920
2016-10-09T09:52:19.543Z,31392
2016-10-09T09:53:30.212Z,32928
2016-10-09T09:54:40.796Z,31904
2016-10-09T09:55:51.332Z,28160
2016-10-09T09:57:01.890Z,23040
2016-10-09T09:58:12.419Z,27072
2016-10-09T09:59:23.032Z,26688
2016-10-09T10:00:33.526Z,25824
2016-10-09T10:01:44.085Z,26752
2016-10-09T10:02:54.652Z,15572
2016-10-09T10:04:05.140Z,14212
2016-10-09T10:05:16.585Z,24960
2016-10-09T10:06:27.097Z,25472
2016-10-09T10:07:37.665Z,43296
2016-10-09T10:08:48.225Z,68928
2016-10-09T10:09:58.780Z,83616
2016-10-09T10:11:09.325Z,68160
2016-10-09T10:12:19.879Z,11628
2016-10-09T10:13:30.432Z,57952
2016-10-09T10:14:40.932Z,52992
2016-10-09T10:15:51.408Z,46144
2016-10-09T10:17:01.973Z,53184
2016-10-09T10:18:12.438Z,56320
2016-10-09T10:19:22.911Z,58208
2016-10-09T10:20:33.380Z,56672
2016-10-09T10:21:43.838Z,57696
2016-10-09T10:22:54.409Z,61344
2016-10-09T10:24:04.879Z,65120
2016-10-09T10:25:15.335Z,59552
2016-10-09T10:26:25.797Z,59616
2016-10-09T10:27:36.647Z,61376
2016-10-09T10:28:47.212Z,65888
2016-10-09T10:29:57.681Z,67744
2016-10-09T10:31:08.141Z,70848
2016-10-09T10:32:18.609Z,68864
2016-10-09T10:33:29.072Z,70144
2016-10-09T10:34:39.640Z,70560
2016-10-09T10:35:50.107Z,70048
2016-10-09T10:37:01.074Z,69824
2016-10-09T10:38:11.564Z,66208
2016-10-09T10:39:22.016Z,68768
2016-10-09T10:40:32.581Z,67520
2016-10-09T10:41:43.075Z,71232
2016-10-09T10:42:53.549Z,73440
2016-10-09T10:44:04.020Z,71584
2016-10-09T10:45:14.972Z,71936
2016-10-09T10:46:25.547Z,73920
2016-10-09T10:47:36.055Z,70560
2016-10-09T10:48:46.596Z,57824
2016-10-09T10:49:57.131Z,73376
2016-10-09T10:51:07.683Z,77152
2016-10-09T10:52:18.607Z,73952
2016-10-09T10:53:29.184Z,74400
2016-10-09T10:54:39.734Z,28896
2016-10-09T10:55:50.694Z,76928
2016-10-09T10:57:01.662Z,74112
2016-10-09T10:58:12.423Z,75264
2016-10-09T10:59:22.953Z,76032
2016-10-09T11:00:33.521Z,78688
2016-10-09T11:01:44.103Z,30912
2016-10-09T11:02:54.638Z,78560
2016-10-09T11:04:05.318Z,74912
2016-10-09T11:05:15.888Z,77152
2016-10-09T11:06:26.466Z,74208
2016-10-09T11:07:37.014Z,72448
2016-10-09T11:08:47.603Z,76544
2016-10-09T11:09:58.147Z,81184
2016-10-09T11:11:08.705Z,83392
2016-10-09T11:12:19.217Z,88224
2016-10-09T11:13:29.782Z,90688
2016-10-09T11:14:40.347Z,90144
2016-10-09T11:15:50.958Z,89824
2016-10-09T11:17:01.986Z,88704
2016-10-09T11:18:12.907Z,84800
2016-10-09T11:19:23.413Z,85088
2016-10-09T11:20:33.978Z,83392
2016-10-09T11:21:44.580Z,82560
2016-10-09T11:22:55.110Z,83296
2016-10-09T11:24:05.605Z,77024
2016-10-09T11:25:16.120Z,67712
2016-10-09T11:26:26.641Z,67808
2016-10-09T11:27:37.265Z,81344
2016-10-09T11:28:47.799Z,85856
2016-10-09T11:29:58.333Z,66464
2016-10-09T11:31:08.805Z,79136
2016-10-09T11:32:19.324Z,80448
2016-10-09T11:33:29.949Z,77824
2016-10-09T11:34:40.463Z,76800
2016-10-09T11:35:50.962Z,42048
2016-10-09T11:37:01.451Z,84064
2016-10-09T11:38:12.489Z,90304
2016-10-09T11:39:23.105Z,71456
2016-10-09T11:40:33.643Z,87776
2016-10-09T11:41:44.182Z,91744
2016-10-09T11:42:54.674Z,84992
2016-10-09T11:44:05.215Z,89088
2016-10-09T11:45:15.686Z,92576
2016-10-09T11:46:26.254Z,85248
2016-10-09T11:47:36.755Z,89280
2016-10-09T11:48:47.247Z,92416
2016-10-09T11:49:57.758Z,94528
2016-10-09T11:51:08.344Z,93120
2016-10-09T11:52:18.880Z,96736
2016-10-09T11:53:29.358Z,95328
2016-10-09T11:54:39.887Z,102400
2016-10-09T11:55:50.439Z,83136
2016-10-09T11:57:01.041Z,100416
2016-10-09T11:58:11.943Z,105120
2016-10-09T11:59:22.453Z,91296
2016-10-09T12:00:33.343Z,90880
2016-10-09T12:01:43.812Z,67744
2016-10-09T12:02:54.415Z,53216
2016-10-09T12:04:05.306Z,56800
2016-10-09T12:05:15.805Z,50048
2016-10-09T12:06:26.367Z,49088
2016-10-09T12:07:36.884Z,59040
2016-10-09T12:08:47.874Z,51360
2016-10-09T12:09:58.388Z,93504
2016-10-09T12:11:08.903Z,76704
2016-10-09T12:12:19.409Z,91136
2016-10-09T12:13:29.911Z,52832
2016-10-09T12:14:41.302Z,55584
2016-10-09T12:15:51.794Z,68832
2016-10-09T12:17:02.281Z,46240
2016-10-09T12:18:12.754Z,123360
2016-10-09T12:19:23.234Z,59200
2016-10-09T12:20:33.853Z,52512
2016-10-09T12:21:44.387Z,126720
2016-10-09T12:22:54.900Z,65568
2016-10-09T12:24:05.433Z,52032
2016-10-09T12:25:15.967Z,128160
2016-10-09T12:26:26.584Z,90880
2016-10-09T12:27:37.064Z,120736
2016-10-09T12:28:47.531Z,89504
2016-10-09T12:29:58.004Z,49856
2016-10-09T12:31:08.480Z,119072
2016-10-09T12:32:18.956Z,55552
2016-10-09T12:33:29.451Z,123904
2016-10-09T12:34:39.925Z,129472
2016-10-09T12:35:50.426Z,50368
2016-10-09T12:37:00.915Z,44896
2016-10-09T12:38:11.489Z,109088
2016-10-09T12:39:21.987Z,56032
2016-10-09T12:40:32.459Z,77632
2016-10-09T12:41:42.943Z,112288
2016-10-09T12:42:53.431Z,61984
2016-10-09T12:44:04.009Z,95328
2016-10-09T12:45:14.485Z,118208
2016-10-09T12:46:24.958Z,42272
2016-10-09T12:47:35.435Z,56672
2016-10-09T12:48:45.898Z,58144
2016-10-09T12:49:56.469Z,84640
2016-10-09T12:51:06.944Z,126432
2016-10-09T12:52:17.424Z,112160
2016-10-09T12:53:27.900Z,123232
2016-10-09T12:54:38.389Z,126144
2016-10-09T12:55:49.246Z,129440
2016-10-09T12:56:59.716Z,118624
2016-10-09T12:58:10.199Z,107168
2016-10-09T12:59:20.688Z,98304
2016-10-09T13:00:31.235Z,108768
2016-10-09T13:01:41.863Z,121568
2016-10-09T13:02:52.389Z,90176
2016-10-09T13:04:02.880Z,107392
2016-10-09T13:05:13.393Z,64512
2016-10-09T13:06:23.955Z,54656
2016-10-09T13:07:34.584Z,134080
2016-10-09T13:08:45.148Z,62048
2016-10-09T13:09:55.696Z,55008
2016-10-09T13:11:06.245Z,97056
2016-10-09T13:12:16.731Z,72800
2016-10-09T13:13:27.348Z,64960
2016-10-09T13:14:37.849Z,90464
2016-10-09T13:15:48.340Z,105856
2016-10-09T13:16:58.856Z,95680
2016-10-09T13:18:09.445Z,120000
2016-10-09T13:19:19.939Z,110048
2016-10-09T13:20:30.530Z,108512
2016-10-09T13:21:41.036Z,72736
2016-10-09T13:22:51.581Z,118016
2016-10-09T13:24:02.082Z,117024
2016-10-09T13:25:12.754Z,61696
2016-10-09T13:26:23.264Z,105888
2016-10-09T13:27:33.787Z,81728
2016-10-09T13:28:44.293Z,103584
2016-10-09T13:29:55.186Z,93920
2016-10-09T13:31:05.792Z,94464
2016-10-09T13:32:17.065Z,107808
2016-10-09T13:33:27.556Z,43488
2016-10-09T13:34:38.100Z,57952
2016-10-09T13:35:48.587Z,88416
2016-10-09T13:36:59.335Z,102464
2016-10-09T13:38:09.892Z,62688
2016-10-09T13:39:20.430Z,119264
2016-10-09T13:40:30.924Z,60960
2016-10-09T13:41:41.462Z,41376
2016-10-09T13:42:51.992Z,38304
2016-10-09T13:44:02.505Z,50880
2016-10-09T13:45:13.426Z,134784
2016-10-09T13:46:24.336Z,133376
2016-10-09T13:47:34.809Z,122496
2016-10-09T13:48:45.425Z,100704
2016-10-09T13:49:55.931Z,48128
2016-10-09T13:51:06.494Z,44800
2016-10-09T13:52:17.052Z,97216
2016-10-09T13:53:27.565Z,42720
2016-10-09T13:54:38.164Z,54432
2016-10-09T13:55:48.666Z,81376
2016-10-09T13:56:59.155Z,135264
2016-10-09T13:58:10.030Z,79424
2016-10-09T13:59:20.503Z,66880
2016-10-09T14:00:31.600Z,111136
2016-10-09T14:01:42.106Z,80416
2016-10-09T14:02:52.610Z,66080
2016-10-09T14:04:03.130Z,64416
2016-10-09T14:05:13.622Z,76096
2016-10-09T14:06:24.253Z,60832
2016-10-09T14:07:35.182Z,58112
2016-10-09T14:08:45.707Z,61952
2016-10-09T14:09:56.229Z,87104
2016-10-09T14:11:06.742Z,77408
2016-10-09T14:12:17.260Z,57344
2016-10-09T14:13:28.185Z,119936
2016-10-09T14:14:38.680Z,50240
2016-10-09T14:15:49.171Z,47392
2016-10-09T14:16:59.633Z,43008
2016-10-09T14:18:10.207Z,49248
2016-10-09T14:19:20.808Z,94112
2016-10-09T14:20:31.299Z,54176
2016-10-09T14:21:41.819Z,105568
2016-10-09T14:22:52.323Z,54560
2016-10-09T14:24:02.926Z,82368
2016-10-09T14:25:13.446Z,64448
2016-10-09T14:26:23.920Z,62400
2016-10-09T14:27:34.382Z,68960
2016-10-09T14:28:45.252Z,85536
2016-10-09T14:29:55.837Z,90112
2016-10-09T14:31:06.392Z,100928
2016-10-09T14:32:16.932Z,106976
2016-10-09T14:33:27.428Z,112640
2016-10-09T14:34:37.900Z,114624
2016-10-09T14:35:48.403Z,72256
2016-10-09T14:36:58.956Z,118144
2016-10-09T14:38:09.466Z,112928
2016-10-09T14:39:19.966Z,92000
2016-10-09T14:40:30.902Z,91776
2016-10-09T14:41:41.634Z,71040
2016-10-09T14:42:52.608Z,41312
2016-10-09T14:44:03.155Z,88352
2016-10-09T14:45:14.082Z,106528
2016-10-09T14:46:24.617Z,51424
2016-10-09T14:47:35.267Z,40896
2016-10-09T14:48:46.135Z,62464
2016-10-09T14:49:56.668Z,47712
2016-10-09T14:51:07.176Z,66432
2016-10-09T14:52:17.723Z,117184
2016-10-09T14:53:28.337Z,46464
2016-10-09T14:54:38.803Z,38784
2016-10-09T14:55:49.307Z,32416
2016-10-09T14:56:59.797Z,32960
2016-10-09T14:58:10.317Z,38528
2016-10-09T14:59:21.442Z,37088
2016-10-09T15:00:31.984Z,32576
2016-10-09T15:01:42.506Z,32800
2016-10-09T15:02:53.034Z,58176
2016-10-09T15:04:03.942Z,33056
2016-10-09T15:05:14.536Z,39616
2016-10-09T15:06:25.454Z,104192
2016-10-09T15:07:36.026Z,44992
2016-10-09T15:08:47.077Z,78496
2016-10-09T15:09:57.580Z,48960
2016-10-09T15:11:08.188Z,43200
2016-10-09T15:12:18.730Z,33056
2016-10-09T15:13:29.247Z,48480
2016-10-09T15:14:39.776Z,112640
2016-10-09T15:15:50.295Z,43264
2016-10-09T15:17:00.787Z,50784
2016-10-09T15:18:11.305Z,114112
2016-10-09T15:19:21.824Z,92096
2016-10-09T15:20:32.293Z,97280
2016-10-09T15:21:42.775Z,109504
2016-10-09T15:22:53.893Z,81760
2016-10-09T15:24:04.373Z,45248
2016-10-09T15:25:14.916Z,106016
2016-10-09T15:26:25.483Z,104640
2016-10-09T15:27:36.003Z,105152
2016-10-09T15:28:46.606Z,102016
2016-10-09T15:29:57.108Z,108864
2016-10-09T15:31:07.608Z,109920
2016-10-09T15:32:18.099Z,41376
2016-10-09T15:33:28.633Z,39744
2016-10-09T15:34:39.231Z,58112
2016-10-09T15:35:49.793Z,104640
2016-10-09T15:37:00.328Z,105664
2016-10-09T15:38:11.295Z,101792
2016-10-09T15:39:21.790Z,53056
2016-10-09T15:40:32.316Z,35680
2016-10-09T15:41:42.827Z,37408
2016-10-09T15:42:53.325Z,98048
2016-10-09T15:44:03.856Z,93344
2016-10-09T15:45:14.402Z,95360
2016-10-09T15:46:25.023Z,92384
2016-10-09T15:47:35.539Z,88704
2016-10-09T15:48:46.046Z,57568
2016-10-09T15:49:56.576Z,85056
2016-10-09T15:51:07.105Z,90304
2016-10-09T15:52:17.682Z,94656
2016-10-09T15:53:28.195Z,80896
2016-10-09T15:54:38.704Z,94272
2016-10-09T15:55:49.168Z,85120
2016-10-09T15:56:59.686Z,95040
2016-10-09T15:58:10.279Z,89024
2016-10-09T15:59:20.829Z,30656
2016-10-09T16:00:31.324Z,30528
2016-10-09T16:01:41.854Z,31072
2016-10-09T16:02:52.409Z,40992
2016-10-09T16:04:02.951Z,36576
2016-10-09T16:05:13.952Z,31232
2016-10-09T16:06:24.840Z,42048
2016-10-09T16:07:35.334Z,93472
2016-10-09T16:08:45.876Z,85280
2016-10-09T16:09:56.472Z,83776
2016-10-09T16:11:06.984Z,86080
2016-10-09T16:12:17.540Z,85952
2016-10-09T16:13:28.064Z,67456
2016-10-09T16:14:38.530Z,85280
2016-10-09T16:15:49.185Z,83776